sensor_id;sensor_type;location;lat;lon;timestamp;P1;durP1;ratioP1;P2;durP2;ratioP2
47784;SDS011;35233;55.686;37.848;2022-10-26T00:00:04;7.53;;;5.00;;
47784;SDS011;35233;55.686;37.848;2022-10-26T00:02:30;7.65;;;4.57;;
47784;SDS011;35233;55.686;37.848;2022-10-26T00:04:55;6.45;;;4.28;;
47784;SDS011;35233;55.686;37.848;2022-10-26T00:07:21;6.03;;;4.10;;
47784;SDS011;35233;55.686;37.848;2022-10-26T00:09:46;7.28;;;4.38;;
47784;SDS011;35233;55.686;37.848;2022-10-26T00:12:12;6.80;;;4.00;;
47784;SDS011;35233;55.686;37.848;2022-10-26T00:14:37;6.15;;;4.20;;
47784;SDS011;35233;55.686;37.848;2022-10-26T00:17:03;5.95;;;3.95;;
47784;SDS011;35233;55.686;37.848;2022-10-26T00:19:32;5.45;;;3.78;;
47784;SDS011;35233;55.686;37.848;2022-10-26T00:21:59;5.18;;;3.80;;
47784;SDS011;35233;55.686;37.848;2022-10-26T00:24:24;5.85;;;3.90;;
47784;SDS011;35233;55.686;37.848;2022-10-26T00:26:50;6.38;;;3.80;;
47784;SDS011;35233;55.686;37.848;2022-10-26T00:29:15;6.55;;;4.10;;
47784;SDS011;35233;55.686;37.848;2022-10-26T00:31:42;7.45;;;4.07;;
47784;SDS011;35233;55.686;37.848;2022-10-26T00:34:08;6.00;;;3.83;;
47784;SDS011;35233;55.686;37.848;2022-10-26T00:36:35;5.95;;;3.80;;
47784;SDS011;35233;55.686;37.848;2022-10-26T00:39:00;6.70;;;4.13;;
47784;SDS011;35233;55.686;37.848;2022-10-26T00:41:27;6.47;;;3.67;;
47784;SDS011;35233;55.686;37.848;2022-10-26T00:43:55;6.28;;;3.97;;
47784;SDS011;35233;55.686;37.848;2022-10-26T00:46:22;6.60;;;4.20;;
47784;SDS011;35233;55.686;37.848;2022-10-26T00:49:00;6.75;;;3.55;;
47784;SDS011;35233;55.686;37.848;2022-10-26T00:51:34;5.55;;;3.53;;
47784;SDS011;35233;55.686;37.848;2022-10-26T00:54:04;5.93;;;3.97;;
47784;SDS011;35233;55.686;37.848;2022-10-26T00:56:35;6.38;;;3.88;;
47784;SDS011;35233;55.686;37.848;2022-10-26T00:59:03;5.32;;;3.75;;
47784;SDS011;35233;55.686;37.848;2022-10-26T01:01:32;6.32;;;3.85;;
47784;SDS011;35233;55.686;37.848;2022-10-26T01:04:00;6.25;;;3.70;;
47784;SDS011;35233;55.686;37.848;2022-10-26T01:06:27;5.43;;;3.55;;
47784;SDS011;35233;55.686;37.848;2022-10-26T01:08:54;7.03;;;3.80;;
47784;SDS011;35233;55.686;37.848;2022-10-26T01:14:07;5.22;;;3.75;;
47784;SDS011;35233;55.686;37.848;2022-10-26T01:28:04;5.13;;;3.65;;
47784;SDS011;35233;55.686;37.848;2022-10-26T01:30:39;4.50;;;3.63;;
47784;SDS011;35233;55.686;37.848;2022-10-26T01:33:17;4.60;;;3.30;;
47784;SDS011;35233;55.686;37.848;2022-10-26T01:41:16;5.57;;;3.40;;
47784;SDS011;35233;55.686;37.848;2022-10-26T01:43:45;4.93;;;3.22;;
47784;SDS011;35233;55.686;37.848;2022-10-26T01:46:38;8.52;;;3.60;;
47784;SDS011;35233;55.686;37.848;2022-10-26T01:49:09;5.68;;;3.38;;
47784;SDS011;35233;55.686;37.848;2022-10-26T01:51:37;5.00;;;3.20;;
47784;SDS011;35233;55.686;37.848;2022-10-26T01:54:05;6.53;;;3.80;;
47784;SDS011;35233;55.686;37.848;2022-10-26T01:56:33;5.28;;;3.35;;
47784;SDS011;35233;55.686;37.848;2022-10-26T02:02:05;6.75;;;3.50;;
47784;SDS011;35233;55.686;37.848;2022-10-26T02:05:40;6.15;;;4.07;;
47784;SDS011;35233;55.686;37.848;2022-10-26T02:07:54;5.65;;;3.70;;
47784;SDS011;35233;55.686;37.848;2022-10-26T02:15:38;5.07;;;3.70;;
47784;SDS011;35233;55.686;37.848;2022-10-26T02:18:17;5.55;;;3.63;;
47784;SDS011;35233;55.686;37.848;2022-10-26T02:20:50;4.50;;;3.10;;
47784;SDS011;35233;55.686;37.848;2022-10-26T02:23:20;5.15;;;3.10;;
47784;SDS011;35233;55.686;37.848;2022-10-26T02:25:49;4.13;;;3.03;;
47784;SDS011;35233;55.686;37.848;2022-10-26T02:28:21;6.07;;;3.25;;
47784;SDS011;35233;55.686;37.848;2022-10-26T02:30:53;5.05;;;3.40;;
47784;SDS011;35233;55.686;37.848;2022-10-26T02:33:22;4.90;;;3.30;;
47784;SDS011;35233;55.686;37.848;2022-10-26T02:35:51;4.72;;;3.35;;
47784;SDS011;35233;55.686;37.848;2022-10-26T02:38:19;4.30;;;3.30;;
47784;SDS011;35233;55.686;37.848;2022-10-26T02:40:48;6.15;;;3.50;;
47784;SDS011;35233;55.686;37.848;2022-10-26T02:43:16;4.68;;;3.40;;
47784;SDS011;35233;55.686;37.848;2022-10-26T02:45:48;6.00;;;3.38;;
47784;SDS011;35233;55.686;37.848;2022-10-26T02:48:21;4.95;;;3.53;;
47784;SDS011;35233;55.686;37.848;2022-10-26T02:50:50;5.30;;;3.45;;
47784;SDS011;35233;55.686;37.848;2022-10-26T02:56:48;5.85;;;3.45;;
47784;SDS011;35233;55.686;37.848;2022-10-26T02:59:18;4.55;;;3.20;;
47784;SDS011;35233;55.686;37.848;2022-10-26T03:01:47;5.82;;;3.40;;
47784;SDS011;35233;55.686;37.848;2022-10-26T03:04:15;4.55;;;3.42;;
47784;SDS011;35233;55.686;37.848;2022-10-26T03:06:40;5.53;;;3.67;;
47784;SDS011;35233;55.686;37.848;2022-10-26T03:09:06;5.88;;;3.50;;
47784;SDS011;35233;55.686;37.848;2022-10-26T03:11:31;5.13;;;3.50;;
47784;SDS011;35233;55.686;37.848;2022-10-26T03:13:57;5.25;;;3.42;;
47784;SDS011;35233;55.686;37.848;2022-10-26T03:16:22;4.90;;;3.15;;
47784;SDS011;35233;55.686;37.848;2022-10-26T03:18:48;5.18;;;3.42;;
47784;SDS011;35233;55.686;37.848;2022-10-26T03:21:13;5.68;;;3.40;;
47784;SDS011;35233;55.686;37.848;2022-10-26T03:23:39;5.20;;;3.65;;
47784;SDS011;35233;55.686;37.848;2022-10-26T03:26:05;5.85;;;3.65;;
47784;SDS011;35233;55.686;37.848;2022-10-26T03:28:31;4.70;;;3.50;;
47784;SDS011;35233;55.686;37.848;2022-10-26T03:30:57;5.03;;;3.22;;
47784;SDS011;35233;55.686;37.848;2022-10-26T03:33:22;7.63;;;3.70;;
47784;SDS011;35233;55.686;37.848;2022-10-26T03:35:53;5.85;;;3.42;;
47784;SDS011;35233;55.686;37.848;2022-10-26T03:38:19;5.20;;;3.53;;
47784;SDS011;35233;55.686;37.848;2022-10-26T03:40:45;5.13;;;3.67;;
47784;SDS011;35233;55.686;37.848;2022-10-26T03:43:12;5.15;;;3.70;;
47784;SDS011;35233;55.686;37.848;2022-10-26T03:45:38;4.43;;;3.50;;
47784;SDS011;35233;55.686;37.848;2022-10-26T03:48:03;5.28;;;3.70;;
47784;SDS011;35233;55.686;37.848;2022-10-26T03:50:29;6.32;;;3.92;;
47784;SDS011;35233;55.686;37.848;2022-10-26T03:52:54;5.43;;;3.55;;
47784;SDS011;35233;55.686;37.848;2022-10-26T03:55:20;5.32;;;3.72;;
47784;SDS011;35233;55.686;37.848;2022-10-26T03:57:45;6.00;;;3.92;;
47784;SDS011;35233;55.686;37.848;2022-10-26T04:00:12;4.45;;;3.33;;
47784;SDS011;35233;55.686;37.848;2022-10-26T04:02:39;4.88;;;3.92;;
47784;SDS011;35233;55.686;37.848;2022-10-26T04:05:06;6.25;;;3.72;;
47784;SDS011;35233;55.686;37.848;2022-10-26T04:07:32;5.28;;;3.40;;
47784;SDS011;35233;55.686;37.848;2022-10-26T04:09:58;4.85;;;3.53;;
47784;SDS011;35233;55.686;37.848;2022-10-26T04:12:23;5.15;;;3.35;;
47784;SDS011;35233;55.686;37.848;2022-10-26T04:14:49;7.20;;;3.70;;
47784;SDS011;35233;55.686;37.848;2022-10-26T04:17:14;6.05;;;3.35;;
47784;SDS011;35233;55.686;37.848;2022-10-26T04:19:40;6.13;;;3.60;;
47784;SDS011;35233;55.686;37.848;2022-10-26T04:22:05;8.40;;;4.22;;
47784;SDS011;35233;55.686;37.848;2022-10-26T04:24:31;5.15;;;3.70;;
47784;SDS011;35233;55.686;37.848;2022-10-26T04:26:56;5.00;;;3.60;;
47784;SDS011;35233;55.686;37.848;2022-10-26T04:29:22;6.15;;;3.80;;
47784;SDS011;35233;55.686;37.848;2022-10-26T04:31:47;5.80;;;3.88;;
47784;SDS011;35233;55.686;37.848;2022-10-26T04:34:13;5.03;;;3.80;;
47784;SDS011;35233;55.686;37.848;2022-10-26T04:36:38;5.50;;;3.58;;
47784;SDS011;35233;55.686;37.848;2022-10-26T04:39:04;5.18;;;3.80;;
47784;SDS011;35233;55.686;37.848;2022-10-26T04:41:32;6.25;;;3.65;;
47784;SDS011;35233;55.686;37.848;2022-10-26T04:43:58;5.70;;;3.80;;
47784;SDS011;35233;55.686;37.848;2022-10-26T04:46:24;6.32;;;4.15;;
47784;SDS011;35233;55.686;37.848;2022-10-26T04:48:49;5.05;;;3.80;;
47784;SDS011;35233;55.686;37.848;2022-10-26T04:51:15;6.45;;;4.15;;
47784;SDS011;35233;55.686;37.848;2022-10-26T04:53:43;5.07;;;3.58;;
47784;SDS011;35233;55.686;37.848;2022-10-26T04:56:09;8.60;;;3.72;;
47784;SDS011;35233;55.686;37.848;2022-10-26T04:58:34;8.32;;;3.92;;
47784;SDS011;35233;55.686;37.848;2022-10-26T05:01:00;8.95;;;4.00;;
47784;SDS011;35233;55.686;37.848;2022-10-26T05:03:26;5.63;;;3.72;;
47784;SDS011;35233;55.686;37.848;2022-10-26T05:05:52;8.43;;;4.00;;
47784;SDS011;35233;55.686;37.848;2022-10-26T05:08:18;5.20;;;3.60;;
47784;SDS011;35233;55.686;37.848;2022-10-26T05:10:47;6.40;;;3.92;;
47784;SDS011;35233;55.686;37.848;2022-10-26T05:13:14;13.55;;;3.90;;
47784;SDS011;35233;55.686;37.848;2022-10-26T05:15:40;7.35;;;3.92;;
47784;SDS011;35233;55.686;37.848;2022-10-26T05:18:05;7.93;;;4.20;;
47784;SDS011;35233;55.686;37.848;2022-10-26T05:20:32;8.40;;;3.92;;
47784;SDS011;35233;55.686;37.848;2022-10-26T05:22:59;6.80;;;4.30;;
47784;SDS011;35233;55.686;37.848;2022-10-26T05:25:28;6.20;;;3.95;;
47784;SDS011;35233;55.686;37.848;2022-10-26T05:27:58;6.18;;;4.10;;
47784;SDS011;35233;55.686;37.848;2022-10-26T05:30:25;11.38;;;4.05;;
47784;SDS011;35233;55.686;37.848;2022-10-26T05:33:12;7.85;;;4.30;;
47784;SDS011;35233;55.686;37.848;2022-10-26T05:35:38;8.30;;;4.13;;
47784;SDS011;35233;55.686;37.848;2022-10-26T05:38:07;6.47;;;3.92;;
47784;SDS011;35233;55.686;37.848;2022-10-26T05:40:45;6.03;;;4.10;;
47784;SDS011;35233;55.686;37.848;2022-10-26T05:43:12;8.18;;;3.85;;
47784;SDS011;35233;55.686;37.848;2022-10-26T05:45:38;9.30;;;4.53;;
47784;SDS011;35233;55.686;37.848;2022-10-26T05:48:04;6.75;;;4.32;;
47784;SDS011;35233;55.686;37.848;2022-10-26T05:50:29;7.15;;;4.25;;
47784;SDS011;35233;55.686;37.848;2022-10-26T05:52:56;6.70;;;4.47;;
47784;SDS011;35233;55.686;37.848;2022-10-26T05:55:22;10.88;;;4.63;;
47784;SDS011;35233;55.686;37.848;2022-10-26T05:57:48;6.10;;;4.25;;
47784;SDS011;35233;55.686;37.848;2022-10-26T06:00:15;6.22;;;4.10;;
47784;SDS011;35233;55.686;37.848;2022-10-26T06:05:21;6.47;;;4.20;;
47784;SDS011;35233;55.686;37.848;2022-10-26T06:07:50;6.35;;;4.25;;
47784;SDS011;35233;55.686;37.848;2022-10-26T06:10:16;6.35;;;4.40;;
47784;SDS011;35233;55.686;37.848;2022-10-26T06:12:43;7.88;;;4.38;;
47784;SDS011;35233;55.686;37.848;2022-10-26T06:15:13;7.35;;;4.22;;
47784;SDS011;35233;55.686;37.848;2022-10-26T06:20:50;7.32;;;4.60;;
47784;SDS011;35233;55.686;37.848;2022-10-26T06:26:11;6.97;;;5.10;;
47784;SDS011;35233;55.686;37.848;2022-10-26T06:31:12;8.35;;;4.35;;
47784;SDS011;35233;55.686;37.848;2022-10-26T06:33:38;7.95;;;4.70;;
47784;SDS011;35233;55.686;37.848;2022-10-26T06:36:16;8.52;;;4.45;;
47784;SDS011;35233;55.686;37.848;2022-10-26T06:38:49;7.22;;;4.70;;
47784;SDS011;35233;55.686;37.848;2022-10-26T06:41:19;8.65;;;5.72;;
47784;SDS011;35233;55.686;37.848;2022-10-26T06:43:47;6.85;;;4.50;;
47784;SDS011;35233;55.686;37.848;2022-10-26T06:51:28;7.72;;;4.53;;
47784;SDS011;35233;55.686;37.848;2022-10-26T06:54:05;7.82;;;4.78;;
47784;SDS011;35233;55.686;37.848;2022-10-26T06:56:39;9.63;;;5.32;;
47784;SDS011;35233;55.686;37.848;2022-10-26T06:59:07;7.18;;;4.90;;
47784;SDS011;35233;55.686;37.848;2022-10-26T07:01:40;7.07;;;5.07;;
47784;SDS011;35233;55.686;37.848;2022-10-26T07:04:06;6.68;;;4.55;;
47784;SDS011;35233;55.686;37.848;2022-10-26T07:06:32;8.70;;;4.95;;
47784;SDS011;35233;55.686;37.848;2022-10-26T07:08:58;6.15;;;4.38;;
47784;SDS011;35233;55.686;37.848;2022-10-26T07:11:24;7.05;;;4.70;;
47784;SDS011;35233;55.686;37.848;2022-10-26T07:13:49;7.30;;;4.85;;
47784;SDS011;35233;55.686;37.848;2022-10-26T07:16:16;7.82;;;4.88;;
47784;SDS011;35233;55.686;37.848;2022-10-26T07:18:41;8.98;;;4.82;;
47784;SDS011;35233;55.686;37.848;2022-10-26T07:21:07;7.28;;;4.60;;
47784;SDS011;35233;55.686;37.848;2022-10-26T07:23:32;8.20;;;4.95;;
47784;SDS011;35233;55.686;37.848;2022-10-26T07:25:58;6.57;;;4.20;;
47784;SDS011;35233;55.686;37.848;2022-10-26T07:28:24;8.98;;;5.07;;
47784;SDS011;35233;55.686;37.848;2022-10-26T07:30:50;7.75;;;4.50;;
47784;SDS011;35233;55.686;37.848;2022-10-26T07:33:15;8.52;;;4.88;;
47784;SDS011;35233;55.686;37.848;2022-10-26T07:35:41;6.80;;;4.63;;
47784;SDS011;35233;55.686;37.848;2022-10-26T07:38:07;8.48;;;5.68;;
47784;SDS011;35233;55.686;37.848;2022-10-26T07:40:32;10.68;;;6.20;;
47784;SDS011;35233;55.686;37.848;2022-10-26T07:42:59;10.98;;;6.85;;
47784;SDS011;35233;55.686;37.848;2022-10-26T07:45:26;12.73;;;7.38;;
47784;SDS011;35233;55.686;37.848;2022-10-26T07:47:52;11.57;;;7.97;;
47784;SDS011;35233;55.686;37.848;2022-10-26T07:50:18;16.30;;;8.95;;
47784;SDS011;35233;55.686;37.848;2022-10-26T07:52:44;11.75;;;8.55;;
47784;SDS011;35233;55.686;37.848;2022-10-26T07:55:10;12.70;;;8.77;;
47784;SDS011;35233;55.686;37.848;2022-10-26T07:57:36;13.05;;;9.43;;
47784;SDS011;35233;55.686;37.848;2022-10-26T08:00:03;13.90;;;9.40;;
47784;SDS011;35233;55.686;37.848;2022-10-26T08:02:30;14.38;;;9.90;;
47784;SDS011;35233;55.686;37.848;2022-10-26T08:04:55;13.85;;;9.50;;
47784;SDS011;35233;55.686;37.848;2022-10-26T08:07:21;14.07;;;9.30;;
47784;SDS011;35233;55.686;37.848;2022-10-26T08:09:47;14.27;;;9.02;;
47784;SDS011;35233;55.686;37.848;2022-10-26T08:12:12;14.38;;;9.65;;
47784;SDS011;35233;55.686;37.848;2022-10-26T08:14:40;15.48;;;9.15;;
47784;SDS011;35233;55.686;37.848;2022-10-26T08:17:06;16.02;;;9.38;;
47784;SDS011;35233;55.686;37.848;2022-10-26T08:19:32;15.07;;;9.50;;
47784;SDS011;35233;55.686;37.848;2022-10-26T08:21:57;13.13;;;9.27;;
47784;SDS011;35233;55.686;37.848;2022-10-26T08:24:23;13.40;;;9.18;;
47784;SDS011;35233;55.686;37.848;2022-10-26T08:26:48;14.25;;;9.05;;
47784;SDS011;35233;55.686;37.848;2022-10-26T08:29:14;13.50;;;8.70;;
47784;SDS011;35233;55.686;37.848;2022-10-26T08:31:39;11.57;;;8.18;;
47784;SDS011;35233;55.686;37.848;2022-10-26T08:34:04;14.32;;;8.10;;
47784;SDS011;35233;55.686;37.848;2022-10-26T08:36:30;11.85;;;8.50;;
47784;SDS011;35233;55.686;37.848;2022-10-26T08:38:55;12.38;;;7.97;;
47784;SDS011;35233;55.686;37.848;2022-10-26T08:44:14;10.88;;;7.57;;
47784;SDS011;35233;55.686;37.848;2022-10-26T08:46:54;13.10;;;7.28;;
47784;SDS011;35233;55.686;37.848;2022-10-26T08:49:31;11.45;;;7.68;;
47784;SDS011;35233;55.686;37.848;2022-10-26T08:52:10;11.18;;;7.88;;
47784;SDS011;35233;55.686;37.848;2022-10-26T08:54:41;10.65;;;7.20;;
47784;SDS011;35233;55.686;37.848;2022-10-26T08:57:26;10.63;;;6.78;;
47784;SDS011;35233;55.686;37.848;2022-10-26T09:00:02;11.43;;;7.03;;
47784;SDS011;35233;55.686;37.848;2022-10-26T09:02:29;10.50;;;6.82;;
47784;SDS011;35233;55.686;37.848;2022-10-26T09:04:56;11.18;;;7.00;;
47784;SDS011;35233;55.686;37.848;2022-10-26T09:24:14;16.48;;;10.15;;
47784;SDS011;35233;55.686;37.848;2022-10-26T09:26:57;14.88;;;10.07;;
47784;SDS011;35233;55.686;37.848;2022-10-26T09:29:28;13.68;;;9.52;;
47784;SDS011;35233;55.686;37.848;2022-10-26T09:31:59;16.90;;;10.43;;
47784;SDS011;35233;55.686;37.848;2022-10-26T09:34:27;13.82;;;9.98;;
47784;SDS011;35233;55.686;37.848;2022-10-26T09:36:56;16.40;;;11.02;;
47784;SDS011;35233;55.686;37.848;2022-10-26T09:39:28;15.82;;;10.70;;
47784;SDS011;35233;55.686;37.848;2022-10-26T09:42:15;15.40;;;10.57;;
47784;SDS011;35233;55.686;37.848;2022-10-26T09:50:41;15.05;;;10.70;;
47784;SDS011;35233;55.686;37.848;2022-10-26T09:53:11;15.80;;;11.05;;
47784;SDS011;35233;55.686;37.848;2022-10-26T09:55:44;13.80;;;10.05;;
47784;SDS011;35233;55.686;37.848;2022-10-26T09:58:13;15.50;;;9.88;;
47784;SDS011;35233;55.686;37.848;2022-10-26T10:00:45;13.90;;;9.90;;
47784;SDS011;35233;55.686;37.848;2022-10-26T10:03:23;15.52;;;10.25;;
47784;SDS011;35233;55.686;37.848;2022-10-26T10:05:51;15.13;;;10.10;;
47784;SDS011;35233;55.686;37.848;2022-10-26T10:08:20;14.43;;;9.88;;
47784;SDS011;35233;55.686;37.848;2022-10-26T10:10:54;14.40;;;9.82;;
47784;SDS011;35233;55.686;37.848;2022-10-26T10:13:32;14.07;;;9.50;;
47784;SDS011;35233;55.686;37.848;2022-10-26T10:18:31;14.80;;;9.20;;
47784;SDS011;35233;55.686;37.848;2022-10-26T10:20:57;15.07;;;9.48;;
47784;SDS011;35233;55.686;37.848;2022-10-26T10:23:25;13.52;;;9.52;;
47784;SDS011;35233;55.686;37.848;2022-10-26T10:26:00;13.43;;;8.70;;
47784;SDS011;35233;55.686;37.848;2022-10-26T10:28:26;13.02;;;8.95;;
47784;SDS011;35233;55.686;37.848;2022-10-26T10:30:53;14.20;;;9.38;;
47784;SDS011;35233;55.686;37.848;2022-10-26T10:33:26;12.32;;;9.20;;
47784;SDS011;35233;55.686;37.848;2022-10-26T10:36:00;14.75;;;9.57;;
47784;SDS011;35233;55.686;37.848;2022-10-26T10:38:28;15.48;;;8.88;;
47784;SDS011;35233;55.686;37.848;2022-10-26T10:40:55;13.05;;;9.00;;
47784;SDS011;35233;55.686;37.848;2022-10-26T10:43:22;15.07;;;9.43;;
47784;SDS011;35233;55.686;37.848;2022-10-26T10:45:49;13.50;;;9.25;;
47784;SDS011;35233;55.686;37.848;2022-10-26T10:48:21;14.55;;;8.98;;
47784;SDS011;35233;55.686;37.848;2022-10-26T10:58:49;13.20;;;8.63;;
47784;SDS011;35233;55.686;37.848;2022-10-26T11:01:38;14.65;;;8.63;;
47784;SDS011;35233;55.686;37.848;2022-10-26T11:07:20;13.48;;;8.38;;
47784;SDS011;35233;55.686;37.848;2022-10-26T11:09:49;13.15;;;8.23;;
47784;SDS011;35233;55.686;37.848;2022-10-26T11:12:18;13.02;;;8.05;;
47784;SDS011;35233;55.686;37.848;2022-10-26T11:14:52;12.40;;;8.30;;
47784;SDS011;35233;55.686;37.848;2022-10-26T11:17:31;15.57;;;8.30;;
47784;SDS011;35233;55.686;37.848;2022-10-26T11:22:37;15.55;;;8.60;;
47784;SDS011;35233;55.686;37.848;2022-10-26T11:30:59;13.27;;;8.40;;
47784;SDS011;35233;55.686;37.848;2022-10-26T11:33:41;14.63;;;8.75;;
47784;SDS011;35233;55.686;37.848;2022-10-26T11:36:13;16.80;;;8.15;;
47784;SDS011;35233;55.686;37.848;2022-10-26T11:38:47;13.13;;;8.30;;
47784;SDS011;35233;55.686;37.848;2022-10-26T11:42:00;13.52;;;8.20;;
47784;SDS011;35233;55.686;37.848;2022-10-26T11:44:54;12.57;;;8.40;;
47784;SDS011;35233;55.686;37.848;2022-10-26T11:47:47;11.45;;;8.02;;
47784;SDS011;35233;55.686;37.848;2022-10-26T11:50:33;14.43;;;8.15;;
47784;SDS011;35233;55.686;37.848;2022-10-26T11:53:07;12.32;;;8.13;;
47784;SDS011;35233;55.686;37.848;2022-10-26T11:55:33;12.55;;;8.32;;
47784;SDS011;35233;55.686;37.848;2022-10-26T11:58:00;12.68;;;8.05;;
47784;SDS011;35233;55.686;37.848;2022-10-26T12:00:27;11.10;;;7.72;;
47784;SDS011;35233;55.686;37.848;2022-10-26T12:02:55;11.80;;;7.78;;
47784;SDS011;35233;55.686;37.848;2022-10-26T12:05:33;12.60;;;7.50;;
47784;SDS011;35233;55.686;37.848;2022-10-26T12:08:24;13.00;;;8.18;;
47784;SDS011;35233;55.686;37.848;2022-10-26T12:11:04;9.90;;;7.03;;
47784;SDS011;35233;55.686;37.848;2022-10-26T12:13:56;12.48;;;7.63;;
47784;SDS011;35233;55.686;37.848;2022-10-26T12:19:20;10.88;;;7.53;;
47784;SDS011;35233;55.686;37.848;2022-10-26T12:21:49;9.75;;;6.93;;
47784;SDS011;35233;55.686;37.848;2022-10-26T12:26:49;12.20;;;7.18;;
47784;SDS011;35233;55.686;37.848;2022-10-26T12:29:32;11.43;;;7.43;;
47784;SDS011;35233;55.686;37.848;2022-10-26T12:32:03;10.50;;;7.18;;
47784;SDS011;35233;55.686;37.848;2022-10-26T12:37:22;10.82;;;6.82;;
47784;SDS011;35233;55.686;37.848;2022-10-26T12:39:55;10.95;;;7.10;;
47784;SDS011;35233;55.686;37.848;2022-10-26T12:42:56;10.32;;;6.93;;
47784;SDS011;35233;55.686;37.848;2022-10-26T12:45:42;10.18;;;6.63;;
47784;SDS011;35233;55.686;37.848;2022-10-26T12:48:22;11.90;;;6.85;;
47784;SDS011;35233;55.686;37.848;2022-10-26T12:50:50;13.23;;;7.07;;
47784;SDS011;35233;55.686;37.848;2022-10-26T12:53:16;11.45;;;6.57;;
47784;SDS011;35233;55.686;37.848;2022-10-26T13:04:29;9.00;;;6.63;;
47784;SDS011;35233;55.686;37.848;2022-10-26T13:07:18;10.70;;;6.53;;
47784;SDS011;35233;55.686;37.848;2022-10-26T13:15:20;12.27;;;6.72;;
47784;SDS011;35233;55.686;37.848;2022-10-26T13:18:22;10.45;;;7.07;;
47784;SDS011;35233;55.686;37.848;2022-10-26T13:23:25;9.25;;;6.53;;
47784;SDS011;35233;55.686;37.848;2022-10-26T13:26:03;11.88;;;7.25;;
47784;SDS011;35233;55.686;37.848;2022-10-26T13:31:02;9.73;;;6.88;;
47784;SDS011;35233;55.686;37.848;2022-10-26T13:33:39;11.85;;;7.28;;
47784;SDS011;35233;55.686;37.848;2022-10-26T13:36:14;10.10;;;6.78;;
47784;SDS011;35233;55.686;37.848;2022-10-26T13:38:44;9.00;;;6.65;;
47784;SDS011;35233;55.686;37.848;2022-10-26T13:41:14;11.48;;;7.43;;
47784;SDS011;35233;55.686;37.848;2022-10-26T13:43:45;9.90;;;6.53;;
47784;SDS011;35233;55.686;37.848;2022-10-26T13:46:20;12.20;;;7.32;;
47784;SDS011;35233;55.686;37.848;2022-10-26T13:48:50;11.40;;;7.10;;
47784;SDS011;35233;55.686;37.848;2022-10-26T13:51:22;12.98;;;7.70;;
47784;SDS011;35233;55.686;37.848;2022-10-26T13:53:51;11.98;;;7.60;;
47784;SDS011;35233;55.686;37.848;2022-10-26T13:56:32;10.27;;;7.40;;
47784;SDS011;35233;55.686;37.848;2022-10-26T14:01:30;11.77;;;7.22;;
47784;SDS011;35233;55.686;37.848;2022-10-26T14:03:56;11.77;;;7.50;;
47784;SDS011;35233;55.686;37.848;2022-10-26T14:06:29;12.25;;;7.95;;
47784;SDS011;35233;55.686;37.848;2022-10-26T14:09:02;11.10;;;7.63;;
47784;SDS011;35233;55.686;37.848;2022-10-26T14:11:34;12.02;;;7.70;;
47784;SDS011;35233;55.686;37.848;2022-10-26T14:14:10;11.13;;;7.43;;
47784;SDS011;35233;55.686;37.848;2022-10-26T14:16:57;11.88;;;7.45;;
47784;SDS011;35233;55.686;37.848;2022-10-26T14:19:25;11.90;;;7.38;;
47784;SDS011;35233;55.686;37.848;2022-10-26T14:21:51;9.45;;;7.22;;
47784;SDS011;35233;55.686;37.848;2022-10-26T14:24:21;10.10;;;7.40;;
47784;SDS011;35233;55.686;37.848;2022-10-26T14:26:54;10.73;;;7.30;;
47784;SDS011;35233;55.686;37.848;2022-10-26T14:29:20;11.95;;;7.43;;
47784;SDS011;35233;55.686;37.848;2022-10-26T14:31:48;10.52;;;6.97;;
47784;SDS011;35233;55.686;37.848;2022-10-26T14:34:14;12.48;;;7.45;;
47784;SDS011;35233;55.686;37.848;2022-10-26T14:36:45;11.88;;;7.43;;
47784;SDS011;35233;55.686;37.848;2022-10-26T14:42:27;12.73;;;8.25;;
47784;SDS011;35233;55.686;37.848;2022-10-26T14:44:56;11.65;;;7.78;;
47784;SDS011;35233;55.686;37.848;2022-10-26T14:47:26;12.98;;;7.97;;
47784;SDS011;35233;55.686;37.848;2022-10-26T14:49:54;12.23;;;7.85;;
47784;SDS011;35233;55.686;37.848;2022-10-26T14:52:38;10.13;;;7.28;;
47784;SDS011;35233;55.686;37.848;2022-10-26T14:55:11;13.18;;;7.65;;
47784;SDS011;35233;55.686;37.848;2022-10-26T15:00:19;10.48;;;7.40;;
47784;SDS011;35233;55.686;37.848;2022-10-26T15:02:55;13.45;;;8.32;;
47784;SDS011;35233;55.686;37.848;2022-10-26T15:07:53;11.95;;;7.00;;
47784;SDS011;35233;55.686;37.848;2022-10-26T15:15:45;10.02;;;6.97;;
47784;SDS011;35233;55.686;37.848;2022-10-26T15:18:17;9.63;;;6.32;;
47784;SDS011;35233;55.686;37.848;2022-10-26T15:20:54;9.38;;;6.22;;
47784;SDS011;35233;55.686;37.848;2022-10-26T15:23:21;9.60;;;6.80;;
47784;SDS011;35233;55.686;37.848;2022-10-26T15:25:59;12.55;;;6.47;;
47784;SDS011;35233;55.686;37.848;2022-10-26T15:28:45;11.00;;;6.97;;
47784;SDS011;35233;55.686;37.848;2022-10-26T15:33:42;9.48;;;6.70;;
47784;SDS011;35233;55.686;37.848;2022-10-26T15:36:31;9.23;;;6.32;;
47784;SDS011;35233;55.686;37.848;2022-10-26T15:39:00;10.50;;;6.95;;
47784;SDS011;35233;55.686;37.848;2022-10-26T15:43:59;8.95;;;6.20;;
47784;SDS011;35233;55.686;37.848;2022-10-26T15:46:33;7.97;;;6.00;;
47784;SDS011;35233;55.686;37.848;2022-10-26T15:49:03;8.60;;;5.80;;
47784;SDS011;35233;55.686;37.848;2022-10-26T15:51:30;8.00;;;5.57;;
47784;SDS011;35233;55.686;37.848;2022-10-26T15:53:56;10.70;;;6.40;;
47784;SDS011;35233;55.686;37.848;2022-10-26T15:56:23;8.77;;;6.38;;
47784;SDS011;35233;55.686;37.848;2022-10-26T15:58:50;8.40;;;5.65;;
47784;SDS011;35233;55.686;37.848;2022-10-26T16:01:24;9.00;;;5.80;;
47784;SDS011;35233;55.686;37.848;2022-10-26T16:03:51;9.02;;;6.07;;
47784;SDS011;35233;55.686;37.848;2022-10-26T16:06:17;8.27;;;5.93;;
47784;SDS011;35233;55.686;37.848;2022-10-26T16:08:46;11.27;;;6.30;;
47784;SDS011;35233;55.686;37.848;2022-10-26T16:11:14;8.35;;;5.75;;
47784;SDS011;35233;55.686;37.848;2022-10-26T16:13:40;8.90;;;5.63;;
47784;SDS011;35233;55.686;37.848;2022-10-26T16:16:14;9.90;;;5.93;;
47784;SDS011;35233;55.686;37.848;2022-10-26T16:18:41;9.40;;;5.93;;
47784;SDS011;35233;55.686;37.848;2022-10-26T16:21:11;11.20;;;6.28;;
47784;SDS011;35233;55.686;37.848;2022-10-26T16:23:37;9.15;;;5.85;;
47784;SDS011;35233;55.686;37.848;2022-10-26T16:26:04;10.20;;;6.28;;
47784;SDS011;35233;55.686;37.848;2022-10-26T16:28:30;9.77;;;6.20;;
47784;SDS011;35233;55.686;37.848;2022-10-26T16:30:59;10.80;;;6.28;;
47784;SDS011;35233;55.686;37.848;2022-10-26T16:33:29;11.25;;;6.43;;
47784;SDS011;35233;55.686;37.848;2022-10-26T16:35:55;12.07;;;6.43;;
47784;SDS011;35233;55.686;37.848;2022-10-26T16:38:24;10.10;;;6.15;;
47784;SDS011;35233;55.686;37.848;2022-10-26T16:41:04;10.35;;;6.90;;
47784;SDS011;35233;55.686;37.848;2022-10-26T16:43:39;10.77;;;5.93;;
47784;SDS011;35233;55.686;37.848;2022-10-26T16:46:13;9.75;;;6.57;;
47784;SDS011;35233;55.686;37.848;2022-10-26T16:48:41;9.88;;;6.68;;
47784;SDS011;35233;55.686;37.848;2022-10-26T16:51:11;10.45;;;6.80;;
47784;SDS011;35233;55.686;37.848;2022-10-26T16:53:37;11.43;;;6.68;;
47784;SDS011;35233;55.686;37.848;2022-10-26T16:56:07;11.48;;;7.20;;
47784;SDS011;35233;55.686;37.848;2022-10-26T16:58:37;9.88;;;6.97;;
47784;SDS011;35233;55.686;37.848;2022-10-26T17:01:04;12.60;;;7.57;;
47784;SDS011;35233;55.686;37.848;2022-10-26T17:03:30;10.63;;;7.05;;
47784;SDS011;35233;55.686;37.848;2022-10-26T17:05:57;11.32;;;7.32;;
47784;SDS011;35233;55.686;37.848;2022-10-26T17:08:24;10.55;;;7.05;;